Not for real navigation | The accuracy of this data is not assured | See disclaimer for more information
ICAO NAME COUNTRY WIND Kt GUST Kt VIS TEMP/DEW BARO
CWZZ Saglek Bay Canada 35 46 9999 1/-5 29.59
CWZZ 261700Z AUTO 30035G46KT ////SM SCT060 BKN070 OVC090 01/M05 A2959
SCRM 32 42 1500 0/0 29.38
SCRM 261700Z 01032G42KT 1500 BLSN OVC003 00/00 Q0995 NOSIG
DAUZ In Amenas Algeria 22 35 5000 30/17 30.03
DAUZ 261642Z 01022G35KT 320V040 5000 TSRA SCT033CB BKN080 30/17 Q1017
GMTT Tanger Aerodrome Morocco 24 35 9999 24/16 30.00
GMTT 261700Z 08024G35KT CAVOK 24/16 Q1016 NOSIG
LIBN Lecce Italy 23 34 9999 19/10 30.12
LIBN 261655Z 34023G34KT 9999 FEW030 19/10 Q1020 RMK FEW VIS MIN 9999 WIND THR14 34021KT WIND THR32 34020KT BLU

Show more